Time;durP1;ratioP1;P1;durP2;ratioP2;P2;SDS_P1;SDS_P2;PMS_P1;PMS_P2;Temp;Humidity;BMP_temperature;BMP_pressure;BME280_temperature;BME280_humidity;BME280_pressure;Samples;Min_cycle;Max_cycle;Signal;HPM_P1;HPM_P2
2022/12/19 00:01:14;;;;;;;29.50;17.27;;;;;;;3.04;80.53;96604.38;5074493;28;20492;-74
2022/12/19 00:03:41;;;;;;;28.47;15.80;;;;;;;3.06;80.15;96609.50;5074700;28;20526;-75
2022/12/19 00:06:08;;;;;;;28.17;17.33;;;;;;;3.05;80.41;96620.78;5074682;28;20436;-74
2022/12/19 00:08:35;;;;;;;29.87;17.57;;;;;;;3.07;81.13;96630.22;5074558;28;20449;-75
2022/12/19 00:11:03;;;;;;;31.43;17.83;;;;;;;3.10;80.22;96626.69;5074464;28;20444;-75
2022/12/19 00:13:31;;;;;;;31.43;18.00;;;;;;;3.10;80.94;96630.13;5074238;28;20448;-75
2022/12/19 00:16:01;;;;;;;29.27;17.10;;;;;;;3.03;81.14;96612.19;5074409;28;20466;-75
2022/12/19 00:18:29;;;;;;;37.10;16.90;;;;;;;3.19;80.59;96620.41;5074020;28;20453;-74
2022/12/19 00:20:57;;;;;;;29.20;15.73;;;;;;;3.31;81.27;96622.66;5039040;28;20481;-74
2022/12/19 00:23:24;;;;;;;27.27;17.63;;;;;;;3.42;80.94;96631.81;5074082;28;20448;-74
2022/12/19 00:25:50;;;;;;;32.70;16.77;;;;;;;3.39;79.89;96631.91;5074037;28;20453;-74
2022/12/19 00:28:17;;;;;;;29.43;16.40;;;;;;;3.28;79.81;96636.56;5073949;28;20460;-74
2022/12/19 00:30:44;;;;;;;23.50;14.90;;;;;;;3.20;80.92;96642.84;5073608;28;20449;-74
2022/12/19 00:33:11;;;;;;;29.93;17.20;;;;;;;3.25;80.75;96638.38;5074046;28;20864;-74
2022/12/19 00:35:39;;;;;;;26.70;16.00;;;;;;;3.34;80.70;96633.78;5022248;28;20543;-74
2022/12/19 00:38:06;;;;;;;26.57;16.50;;;;;;;3.42;80.86;96630.97;5074050;28;20912;-75
2022/12/19 00:40:32;;;;;;;30.50;17.50;;;;;;;3.43;79.55;96638.69;5073486;28;20967;-74
2022/12/19 00:42:59;;;;;;;35.33;18.93;;;;;;;3.46;79.71;96639.50;5073760;28;20464;-73
2022/12/19 00:45:26;;;;;;;36.73;21.63;;;;;;;3.39;79.70;96636.25;5072964;28;20498;-74
2022/12/19 00:47:53;;;;;;;30.60;15.93;;;;;;;3.46;80.39;96648.13;5073595;28;20527;-75
2022/12/19 00:50:20;;;;;;;28.67;17.10;;;;;;;3.55;79.78;96641.84;5073519;28;20444;-75
2022/12/19 00:52:48;;;;;;;26.83;17.00;;;;;;;3.60;80.51;96646.00;5072716;28;20448;-75
2022/12/19 00:55:15;;;;;;;30.00;16.57;;;;;;;3.67;79.39;96637.13;5072902;28;20451;-74
2022/12/19 00:57:41;;;;;;;25.77;15.77;;;;;;;3.79;79.12;96643.72;5072791;28;20444;-75
2022/12/19 01:00:10;;;;;;;27.70;16.70;;;;;;;3.85;79.79;96645.28;5072898;28;20447;-74
2022/12/19 01:02:36;;;;;;;29.27;16.27;;;;;;;3.88;78.87;96647.78;5073302;28;20910;-75
2022/12/19 01:05:04;;;;;;;26.00;14.60;;;;;;;3.94;79.16;96643.25;5021533;28;20951;-74
2022/12/19 01:07:31;;;;;;;30.93;18.13;;;;;;;3.92;78.00;96646.78;5073296;28;20865;-75
2022/12/19 01:09:59;;;;;;;27.73;17.73;;;;;;;3.87;77.91;96646.09;5073546;28;20448;-75
2022/12/19 01:15:10;;;;;;;23.80;15.60;;;;;;;3.98;78.67;96651.78;5073274;28;20425;-74
2022/12/19 01:17:37;;;;;;;29.30;17.47;;;;;;;3.92;79.19;96655.44;5037519;28;21081;-74
2022/12/19 01:20:05;;;;;;;29.07;16.27;;;;;;;3.93;79.06;96659.72;5073191;28;20449;-74
2022/12/19 01:22:31;;;;;;;31.17;17.67;;;;;;;3.94;79.39;96660.56;5072843;28;20480;-74
2022/12/19 01:25:00;;;;;;;32.70;16.70;;;;;;;3.93;78.29;96666.66;5073079;28;20444;-74
2022/12/19 01:27:26;;;;;;;31.80;17.37;;;;;;;3.90;78.61;96653.78;5072973;28;20518;-74
2022/12/19 01:29:54;;;;;;;27.10;17.27;;;;;;;3.79;79.22;96650.66;5072996;28;20441;-74
2022/12/19 01:32:20;;;;;;;29.33;17.10;;;;;;;3.70;78.92;96651.75;5072989;28;20876;-74
2022/12/19 01:34:47;;;;;;;30.07;16.30;;;;;;;3.60;80.00;96648.59;5072657;28;20453;-74
2022/12/19 01:37:14;;;;;;;30.83;17.67;;;;;;;3.61;80.21;96658.09;5073031;28;20445;-73
2022/12/19 01:39:41;;;;;;;27.87;15.70;;;;;;;3.46;80.10;96655.06;5072535;28;20456;-75
2022/12/19 01:42:14;;;;;;;31.50;16.80;;;;;;;3.40;81.31;96650.91;5072942;28;20492;-74
2022/12/19 01:45:02;;;;;;;29.60;15.97;;;;;;;3.46;81.15;96653.31;5072772;28;20950;-75
2022/12/19 01:47:30;;;;;;;25.70;16.53;;;;;;;3.43;80.48;96646.47;5072762;28;20544;-75
2022/12/19 01:49:57;;;;;;;29.53;15.70;;;;;;;3.46;81.06;96645.53;5072616;28;20767;-74
2022/12/19 01:52:24;;;;;;;27.13;16.70;;;;;;;3.50;80.82;96656.72;5072494;28;20440;-74
2022/12/19 01:54:50;;;;;;;23.27;13.83;;;;;;;3.56;81.23;96649.59;5072613;28;20448;-75
2022/12/19 01:57:20;;;;;;;24.50;16.17;;;;;;;3.50;81.54;96648.94;5072427;28;20839;-74
2022/12/19 01:59:50;;;;;;;24.80;16.23;;;;;;;3.46;81.27;96642.94;5072645;28;20441;-74
2022/12/19 02:02:23;;;;;;;26.30;15.57;;;;;;;3.46;81.45;96640.34;5072308;28;20495;-74
2022/12/19 02:04:50;;;;;;;29.13;15.30;;;;;;;3.52;81.06;96640.19;5072367;28;21039;-74
2022/12/19 02:07:18;;;;;;;28.80;16.10;;;;;;;3.57;81.06;96645.25;5072652;28;20456;-75
2022/12/19 02:09:46;;;;;;;25.13;15.80;;;;;;;3.53;81.72;96633.25;5072414;28;20494;-74
2022/12/19 02:12:14;;;;;;;33.80;17.90;;;;;;;3.49;81.49;96644.63;5072939;28;20468;-74
2022/12/19 02:14:42;;;;;;;27.27;16.93;;;;;;;3.53;81.92;96646.25;5072428;28;20444;-74
2022/12/19 02:17:19;;;;;;;27.63;16.87;;;;;;;3.52;81.89;96647.13;5020873;28;20837;-74
2022/12/19 02:20:13;;;;;;;23.80;14.90;;;;;;;3.43;82.09;96641.28;5072661;28;20472;-74
2022/12/19 02:22:57;;;;;;;23.03;15.07;;;;;;;3.38;82.45;96639.72;5072196;28;20481;-74
2022/12/19 02:25:49;;;;;;;27.87;17.70;;;;;;;3.38;82.03;96637.13;5072330;28;20931;-75
2022/12/19 02:28:39;;;;;;;24.57;15.80;;;;;;;3.48;82.91;96641.19;5072456;28;20445;-74
2022/12/19 02:31:16;;;;;;;29.30;16.60;;;;;;;3.52;82.34;96647.13;5072234;28;20441;-74
2022/12/19 02:33:50;;;;;;;33.20;17.27;;;;;;;3.49;81.88;96653.25;5072302;28;20452;-74
2022/12/19 02:36:21;;;;;;;32.77;17.80;;;;;;;3.46;82.44;96653.31;5072631;28;20452;-75
2022/12/19 02:38:54;;;;;;;26.53;15.83;;;;;;;3.43;82.84;96650.81;5072125;28;20455;-75
2022/12/19 02:41:25;;;;;;;33.87;16.47;;;;;;;3.43;83.03;96653.41;5072308;28;20481;-74
2022/12/19 02:43:56;;;;;;;25.17;16.40;;;;;;;3.35;82.67;96657.97;5036749;28;21035;-74
2022/12/19 02:46:24;;;;;;;26.83;15.37;;;;;;;3.34;82.47;96654.53;5071993;28;20480;-75
2022/12/19 02:48:52;;;;;;;33.00;17.13;;;;;;;3.28;82.72;96659.06;5072049;28;20460;-75
2022/12/19 02:51:19;;;;;;;32.00;16.70;;;;;;;3.32;83.07;96655.47;5072416;28;20440;-74
2022/12/19 02:53:46;;;;;;;33.77;17.07;;;;;;;3.27;82.38;96652.16;5072287;28;20509;-74
2022/12/19 02:56:29;;;;;;;33.20;18.77;;;;;;;3.25;82.95;96652.22;5072011;28;20830;-75
2022/12/19 02:59:23;;;;;;;30.20;16.30;;;;;;;3.31;82.61;96652.03;5071816;28;20444;-74
2022/12/19 03:01:56;;;;;;;29.73;15.63;;;;;;;3.31;82.55;96649.44;5071746;28;20499;-74
2022/12/19 03:04:35;;;;;;;31.80;16.13;;;;;;;3.30;82.39;96649.47;5072187;28;20555;-74
2022/12/19 03:07:10;;;;;;;34.33;17.93;;;;;;;3.32;82.32;96640.75;5071838;28;20472;-74
2022/12/19 03:09:46;;;;;;;24.57;14.00;;;;;;;3.35;82.52;96639.81;5073009;28;20451;-75
2022/12/19 03:12:22;;;;;;;27.07;16.37;;;;;;;3.41;81.91;96637.03;5075150;28;20440;-75
2022/12/19 03:14:50;;;;;;;29.63;17.30;;;;;;;3.49;81.17;96636.84;5075576;28;20832;-75
2022/12/19 03:17:19;;;;;;;28.30;16.90;;;;;;;3.53;81.69;96634.13;5075248;28;20449;-75
2022/12/19 03:19:46;;;;;;;30.73;18.50;;;;;;;3.53;80.58;96631.53;5040422;28;20444;-74
2022/12/19 03:22:13;;;;;;;31.43;17.00;;;;;;;3.63;81.08;96627.75;5075181;28;21053;-74
2022/12/19 03:24:40;;;;;;;29.30;16.43;;;;;;;3.69;81.35;96637.94;5075184;28;20448;-75
2022/12/19 03:27:11;;;;;;;27.73;16.67;;;;;;;3.73;80.87;96626.56;5023813;28;20449;-74
2022/12/19 03:29:43;;;;;;;26.27;16.83;;;;;;;3.79;79.87;96637.69;5075086;28;20916;-75
2022/12/19 03:32:14;;;;;;;31.83;17.70;;;;;;;3.85;80.22;96645.28;5074857;28;20926;-75
2022/12/19 03:34:47;;;;;;;30.23;17.60;;;;;;;3.93;80.91;96638.09;5074870;28;20448;-74
2022/12/19 03:37:17;;;;;;;32.47;18.57;;;;;;;3.93;80.71;96645.88;5075313;28;20445;-75
2022/12/19 03:39:48;;;;;;;30.67;17.80;;;;;;;3.91;80.21;96650.28;5075192;28;20440;-74
2022/12/19 03:45:04;;;;;;;30.43;17.17;;;;;;;3.92;79.53;96659.78;5074845;28;20793;-74
2022/12/19 03:47:35;;;;;;;33.80;17.37;;;;;;;3.92;80.21;96657.19;5074776;28;20459;-75
2022/12/19 03:50:05;;;;;;;30.33;15.90;;;;;;;3.96;79.45;96654.44;5074738;28;20498;-75
2022/12/19 03:52:39;;;;;;;25.67;17.10;;;;;;;3.98;79.93;96652.63;5074645;28;20449;-74
2022/12/19 03:55:12;;;;;;;29.40;19.77;;;;;;;3.98;79.52;96654.38;5039269;28;20519;-75
2022/12/19 03:57:44;;;;;;;29.00;15.90;;;;;;;3.97;79.17;96669.13;5074814;28;20558;-75
2022/12/19 04:00:14;;;;;;;25.70;16.40;;;;;;;3.93;78.82;96669.25;5074157;28;20505;-76
2022/12/19 04:02:44;;;;;;;28.17;16.07;;;;;;;3.80;79.03;96670.53;5088923;28;20485;-75
2022/12/19 04:05:18;;;;;;;30.93;15.73;;;;;;;3.63;78.99;96669.28;5084864;28;20454;-75
2022/12/19 04:07:45;;;;;;;31.97;16.77;;;;;;;3.51;79.62;96685.22;5075352;28;20456;-74
2022/12/19 04:10:16;;;;;;;29.80;17.00;;;;;;;3.48;79.26;96674.94;5089649;28;20455;-75
2022/12/19 04:12:48;;;;;;;27.03;16.90;;;;;;;3.36;79.45;96677.84;5089794;28;20463;-75
2022/12/19 04:15:16;;;;;;;27.33;17.23;;;;;;;3.28;81.08;96685.84;5089591;28;20496;-75
2022/12/19 04:17:47;;;;;;;25.50;16.80;;;;;;;3.28;80.69;96696.22;5049361;28;20455;-75
2022/12/19 04:20:17;;;;;;;32.13;18.37;;;;;;;3.25;81.29;96692.88;5093889;28;20440;-74
2022/12/19 04:22:51;;;;;;;27.67;16.27;;;;;;;3.33;82.01;96698.69;5094318;28;20484;-75
2022/12/19 04:25:27;;;;;;;30.03;16.10;;;;;;;3.34;81.35;96700.38;5094122;28;20830;-75
2022/12/19 04:27:57;;;;;;;30.83;17.30;;;;;;;3.35;81.44;96699.50;5093932;28;20452;-74
2022/12/19 04:30:24;;;;;;;36.13;18.40;;;;;;;3.31;81.70;96703.06;5094053;28;20835;-75
2022/12/19 04:32:51;;;;;;;28.83;17.40;;;;;;;3.33;81.05;96702.13;5094480;28;20444;-76
2022/12/19 04:35:20;;;;;;;31.00;16.73;;;;;;;3.23;80.63;96697.25;5041645;28;20467;-75
2022/12/19 04:37:46;;;;;;;31.20;19.20;;;;;;;3.20;81.79;96700.78;5058373;28;20448;-74
2022/12/19 04:40:14;;;;;;;31.70;17.73;;;;;;;3.13;81.42;96691.44;5094014;28;20493;-75
2022/12/19 04:42:40;;;;;;;37.17;19.20;;;;;;;3.01;82.23;96692.63;5093831;28;20537;-75
2022/12/19 04:45:11;;;;;;;33.83;17.90;;;;;;;2.97;82.20;96696.19;5093946;28;20456;-75
2022/12/19 04:47:37;;;;;;;29.80;17.83;;;;;;;2.85;82.64;96696.50;5094093;28;20789;-75
2022/12/19 04:50:05;;;;;;;24.17;17.33;;;;;;;2.90;83.27;96696.41;5093966;28;20846;-76
2022/12/19 04:52:33;;;;;;;31.17;17.43;;;;;;;2.90;83.32;96699.84;5093819;28;20443;-75
2022/12/19 04:55:00;;;;;;;32.63;19.23;;;;;;;2.87;83.07;96697.28;5057881;28;20440;-75
2022/12/19 04:57:29;;;;;;;42.73;19.27;;;;;;;2.81;82.99;96700.06;5093648;28;20500;-75
2022/12/19 04:59:56;;;;;;;36.73;19.40;;;;;;;2.74;82.97;96701.97;5093822;28;20444;-74
2022/12/19 05:02:23;;;;;;;40.50;21.03;;;;;;;2.66;84.19;96711.66;5093925;28;20487;-75
2022/12/19 05:04:50;;;;;;;33.27;19.50;;;;;;;2.59;83.56;96717.88;5058030;28;20432;-74
2022/12/19 05:07:17;;;;;;;28.83;19.50;;;;;;;2.46;84.45;96713.88;5093454;28;20450;-75
2022/12/19 05:09:45;;;;;;;28.00;16.87;;;;;;;2.38;84.66;96721.84;5092880;28;20785;-74
2022/12/19 05:12:11;;;;;;;34.40;17.13;;;;;;;2.44;84.83;96719.09;5093442;28;20493;-74
2022/12/19 05:14:38;;;;;;;25.03;16.27;;;;;;;2.48;84.64;96718.13;5094032;28;20456;-77
2022/12/19 05:17:05;;;;;;;30.07;19.67;;;;;;;2.65;85.24;96711.72;5093901;28;20497;-75
2022/12/19 05:19:32;;;;;;;35.63;18.77;;;;;;;2.78;84.81;96715.69;5093455;28;20493;-75
2022/12/19 05:21:58;;;;;;;34.47;20.40;;;;;;;2.92;84.65;96710.16;5093155;28;20487;-75
2022/12/19 05:24:25;;;;;;;32.30;19.07;;;;;;;3.01;83.98;96710.78;5093290;28;20448;-76
2022/12/19 05:26:53;;;;;;;33.27;20.00;;;;;;;2.84;82.51;96715.53;5093262;28;21081;-74
2022/12/19 05:29:20;;;;;;;38.33;17.97;;;;;;;2.77;83.01;96722.59;5093775;28;20443;-74
2022/12/19 05:31:47;;;;;;;42.50;19.93;;;;;;;2.72;83.35;96715.84;5092291;28;20447;-76
2022/12/19 05:34:14;;;;;;;32.20;17.50;;;;;;;2.82;84.44;96714.72;5042206;28;20451;-77
2022/12/19 05:36:40;;;;;;;37.22;22.38;;;;;;;2.96;84.09;96723.00;5057025;28;20807;-75
2022/12/19 05:39:07;;;;;;;32.07;19.67;;;;;;;3.09;83.07;96723.53;5093104;28;20928;-74
2022/12/19 05:41:34;;;;;;;35.93;22.00;;;;;;;2.98;82.61;96723.81;5089539;28;20453;-76
2022/12/19 05:44:02;;;;;;;39.10;19.80;;;;;;;3.04;82.67;96723.66;5091858;28;20484;-75
2022/12/19 05:46:29;;;;;;;34.83;19.80;;;;;;;3.07;82.66;96722.72;5093061;28;20460;-75
2022/12/19 05:48:55;;;;;;;42.40;24.70;;;;;;;3.00;81.99;96723.78;5075805;28;20495;-75
2022/12/19 05:51:23;;;;;;;41.43;24.47;;;;;;;3.01;82.71;96718.56;5073026;28;20445;-75
2022/12/19 05:53:50;;;;;;;48.40;28.23;;;;;;;2.99;82.81;96722.94;5072909;28;20449;-75
2022/12/19 05:56:18;;;;;;;45.42;27.30;;;;;;;3.03;82.68;96721.09;5072236;28;20448;-75
2022/12/19 05:58:45;;;;;;;42.00;20.77;;;;;;;2.97;83.00;96723.84;5072536;28;20198;-75
2022/12/19 06:01:16;;;;;;;34.53;21.07;;;;;;;2.91;83.00;96732.66;5072529;28;20529;-76
2022/12/19 06:03:43;;;;;;;37.60;20.50;;;;;;;2.91;82.80;96732.66;5072498;28;20496;-74
2022/12/19 06:06:11;;;;;;;36.00;21.63;;;;;;;2.88;83.41;96732.69;5086162;28;20766;-74
2022/12/19 06:08:39;;;;;;;38.07;21.27;;;;;;;2.87;83.00;96733.59;5087859;28;20788;-74
2022/12/19 06:11:07;;;;;;;36.33;19.70;;;;;;;2.89;83.33;96737.03;5085143;28;20808;-75
2022/12/19 06:13:34;;;;;;;34.73;19.43;;;;;;;2.92;83.11;96734.34;5020745;28;20441;-75
2022/12/19 06:16:03;;;;;;;32.60;17.77;;;;;;;2.99;82.41;96738.50;5085350;28;20453;-75
2022/12/19 06:18:32;;;;;;;30.30;16.87;;;;;;;2.99;82.04;96735.03;5056760;28;20461;-75
2022/12/19 06:21:00;;;;;;;30.90;18.10;;;;;;;2.99;82.57;96740.22;5036941;28;20840;-75
2022/12/19 06:23:27;;;;;;;37.77;20.60;;;;;;;2.92;81.71;96746.47;5076193;28;20483;-74
2022/12/19 06:25:56;;;;;;;31.67;19.50;;;;;;;2.90;81.96;96748.25;5091417;28;20448;-75
2022/12/19 06:28:22;;;;;;;34.23;18.70;;;;;;;2.93;82.29;96756.81;5087989;28;20763;-74
2022/12/19 06:30:49;;;;;;;30.63;18.13;;;;;;;2.98;82.55;96757.53;5078833;28;20440;-74
2022/12/19 06:33:16;;;;;;;32.63;20.47;;;;;;;3.02;81.97;96761.75;5088867;28;20464;-74
2022/12/19 06:35:44;;;;;;;30.70;18.13;;;;;;;3.07;81.66;96759.88;5072846;28;20445;-74
2022/12/19 06:38:11;;;;;;;28.40;17.17;;;;;;;3.10;81.41;96759.78;5075980;28;20453;-75
2022/12/19 06:43:26;;;;;;;41.17;20.70;;;;;;;3.13;80.92;96760.59;5090625;28;20504;-75
2022/12/19 06:45:52;;;;;;;33.20;19.97;;;;;;;3.18;81.65;96764.81;5095019;28;20439;-75
2022/12/19 06:48:19;;;;;;;37.17;19.90;;;;;;;3.29;80.19;96767.13;5095639;28;20444;-75
2022/12/19 06:50:48;;;;;;;33.10;17.17;;;;;;;3.32;80.88;96774.81;5095553;28;20444;-75
2022/12/19 06:53:14;;;;;;;29.23;17.90;;;;;;;3.28;80.57;96773.19;5095217;28;20504;-75
2022/12/19 06:55:41;;;;;;;30.77;19.47;;;;;;;3.17;81.00;96772.59;5095026;28;20455;-75
2022/12/19 06:58:08;;;;;;;36.97;18.93;;;;;;;3.19;81.05;96771.69;5095261;28;20451;-75
2022/12/19 07:00:35;;;;;;;34.10;20.47;;;;;;;3.16;80.48;96781.28;5094644;28;21049;-75
2022/12/19 07:03:04;;;;;;;41.67;24.03;;;;;;;3.20;81.41;96786.38;5095471;28;20483;-75
2022/12/19 07:05:31;;;;;;;32.00;20.43;;;;;;;3.24;81.73;96793.19;5095319;28;20447;-75
2022/12/19 07:08:00;;;;;;;37.77;20.80;;;;;;;3.26;82.44;96795.75;5042320;28;20792;-75
2022/12/19 07:10:27;;;;;;;39.50;20.87;;;;;;;3.09;82.94;96790.97;5094960;28;20500;-75
2022/12/19 07:12:53;;;;;;;35.33;20.80;;;;;;;2.67;84.75;96783.34;5094649;28;20461;-75
2022/12/19 07:15:20;;;;;;;33.80;20.00;;;;;;;2.47;86.21;96791.56;5094739;28;20458;-75
2022/12/19 07:17:47;;;;;;;43.47;21.57;;;;;;;2.56;86.15;96797.41;5094901;28;21161;-75
2022/12/19 07:20:15;;;;;;;37.50;21.37;;;;;;;2.63;86.37;96796.41;5094763;28;20496;-75
2022/12/19 07:22:43;;;;;;;71.67;25.80;;;;;;;2.77;86.78;96799.53;5094655;28;20486;-74
2022/12/19 07:25:11;;;;;;;38.27;22.67;;;;;;;2.61;87.47;96795.59;5094819;28;20856;-75
2022/12/19 07:27:38;;;;;;;40.43;22.87;;;;;;;2.45;87.95;96798.53;5058694;28;20443;-75
2022/12/19 07:30:07;;;;;;;37.80;22.37;;;;;;;2.25;89.33;96797.25;5094768;28;20504;-75
2022/12/19 07:32:34;;;;;;;40.40;22.07;;;;;;;1.97;90.01;96797.81;5009893;28;20622;-75
2022/12/19 07:35:01;;;;;;;39.40;21.97;;;;;;;1.98;90.50;96804.72;5094655;28;20486;-75
2022/12/19 07:37:28;;;;;;;41.70;21.60;;;;;;;1.91;91.45;96799.69;5094507;28;20505;-75
2022/12/19 07:39:55;;;;;;;41.80;21.23;;;;;;;1.95;91.76;96798.75;5094408;28;20455;-75
2022/12/19 07:42:23;;;;;;;32.37;20.93;;;;;;;2.12;90.93;96800.13;5094341;28;20957;-75
2022/12/19 07:44:50;;;;;;;34.97;20.43;;;;;;;2.21;90.82;96801.66;5094166;28;21008;-75
2022/12/19 07:47:16;;;;;;;36.27;21.10;;;;;;;2.33;90.31;96811.75;5094355;28;20968;-75
2022/12/19 07:49:43;;;;;;;34.13;20.50;;;;;;;2.38;90.22;96814.25;5094111;28;20476;-74
2022/12/19 07:52:10;;;;;;;37.27;21.13;;;;;;;2.48;89.45;96821.78;5094204;28;20832;-74
2022/12/19 07:54:37;;;;;;;37.20;21.60;;;;;;;2.58;89.28;96827.59;5093436;28;20448;-75
2022/12/19 07:57:04;;;;;;;36.47;20.57;;;;;;;2.55;89.25;96832.84;5093955;28;20454;-75
2022/12/19 07:59:32;;;;;;;43.83;20.67;;;;;;;2.48;89.07;96837.31;5094070;28;20451;-74
2022/12/19 08:01:59;;;;;;;37.13;22.70;;;;;;;2.54;89.53;96838.91;5093954;28;20890;-75
2022/12/19 08:04:26;;;;;;;37.70;21.60;;;;;;;2.44;88.62;96850.38;5041925;28;20935;-75
2022/12/19 08:06:52;;;;;;;42.80;20.77;;;;;;;2.40;89.96;96847.00;5093753;28;20444;-74
2022/12/19 08:09:19;;;;;;;43.53;21.10;;;;;;;2.08;90.50;96844.22;5093525;28;20444;-75
2022/12/19 08:11:46;;;;;;;37.83;20.27;;;;;;;2.08;90.42;96855.44;5093802;28;20447;-75
2022/12/19 08:14:13;;;;;;;38.10;21.40;;;;;;;2.12;91.14;96858.81;5093642;28;20477;-74
2022/12/19 08:16:41;;;;;;;41.03;22.07;;;;;;;2.11;90.53;96854.53;5041883;28;20444;-75
2022/12/19 08:19:08;;;;;;;44.73;21.00;;;;;;;2.04;91.50;96855.53;5093649;28;20451;-75
2022/12/19 08:21:34;;;;;;;46.23;21.70;;;;;;;2.09;91.25;96849.38;5093302;28;20447;-75
2022/12/19 08:24:01;;;;;;;38.33;21.73;;;;;;;2.08;91.14;96849.41;5093266;28;20491;-75
2022/12/19 08:26:28;;;;;;;46.13;20.97;;;;;;;2.18;91.39;96858.69;5093458;28;20440;-75
2022/12/19 08:28:57;;;;;;;43.57;22.90;;;;;;;2.25;91.68;96852.50;5041537;28;20446;-75
2022/12/19 08:31:26;;;;;;;42.67;24.67;;;;;;;2.28;91.06;96849.84;5093431;28;20444;-74
2022/12/19 08:33:56;;;;;;;41.80;23.80;;;;;;;2.28;91.06;96862.78;5093335;28;20447;-74
2022/12/19 08:36:23;;;;;;;41.30;24.30;;;;;;;2.44;91.61;96865.94;5093195;28;20455;-75
2022/12/19 08:38:50;;;;;;;46.53;24.23;;;;;;;2.54;91.13;96858.78;5093474;28;20454;-75
2022/12/19 08:41:18;;;;;;;46.03;23.47;;;;;;;2.73;90.85;96854.91;5093101;28;20448;-75
2022/12/19 08:43:49;;;;;;;43.23;21.87;;;;;;;2.68;90.88;96857.63;5093086;28;20990;-74
2022/12/19 08:46:17;;;;;;;38.93;21.80;;;;;;;2.57;90.60;96859.56;5093078;28;20440;-75
2022/12/19 08:48:44;;;;;;;38.43;21.33;;;;;;;2.62;90.37;96851.72;5092807;28;20502;-75
2022/12/19 08:51:14;;;;;;;38.77;22.50;;;;;;;2.68;90.40;96849.00;5093299;28;20446;-74
2022/12/19 08:53:42;;;;;;;37.87;23.10;;;;;;;2.86;90.96;96845.09;5092776;28;20493;-75
2022/12/19 08:56:13;;;;;;;42.77;23.10;;;;;;;2.92;90.28;96845.00;5093004;28;20500;-75
2022/12/19 08:58:39;;;;;;;45.80;22.73;;;;;;;2.99;90.61;96838.75;5092805;28;20447;-74
2022/12/19 09:01:09;;;;;;;39.40;22.83;;;;;;;3.09;90.83;96838.50;5092834;28;20992;-76
2022/12/19 09:03:36;;;;;;;36.00;21.67;;;;;;;3.13;89.43;96826.31;5040484;28;20483;-75
2022/12/19 09:06:05;;;;;;;40.60;24.33;;;;;;;3.13;89.88;96833.22;5092624;28;20452;-75
2022/12/19 09:08:34;;;;;;;40.07;21.60;;;;;;;3.07;89.74;96827.31;5091916;28;20440;-74
2022/12/19 09:11:03;;;;;;;38.93;22.10;;;;;;;2.70;91.32;96823.88;5092609;28;20805;-75
2022/12/19 09:13:31;;;;;;;37.43;21.90;;;;;;;2.91;90.91;96823.41;5092566;28;20440;-75
2022/12/19 09:16:02;;;;;;;41.10;23.30;;;;;;;2.77;91.25;96822.84;5092430;28;20435;-75
2022/12/19 09:18:30;;;;;;;40.37;23.13;;;;;;;2.87;91.97;96819.16;5093117;28;20455;-75
2022/12/19 09:20:58;;;;;;;42.83;21.27;;;;;;;2.78;92.31;96814.19;5092335;28;20465;-75
2022/12/19 09:23:27;;;;;;;46.27;25.63;;;;;;;2.93;91.84;96813.84;5092567;28;20483;-75
2022/12/19 09:25:55;;;;;;;48.30;26.73;;;;;;;3.04;92.29;96814.41;5092205;28;20527;-74
2022/12/19 09:28:23;;;;;;;40.00;18.97;;;;;;;2.80;91.71;96810.66;5092195;28;20452;-75
2022/12/19 09:30:56;;;;;;;46.40;26.00;;;;;;;2.56;92.84;96800.00;5092337;28;20447;-77
2022/12/19 09:33:23;;;;;;;49.27;25.87;;;;;;;2.66;94.08;96786.81;5092423;28;20488;-75
2022/12/19 09:35:50;;;;;;;42.33;22.60;;;;;;;2.66;93.47;96786.81;5092185;28;20842;-74
2022/12/19 09:38:18;;;;;;;43.60;22.73;;;;;;;2.35;94.50;96789.25;5092816;28;20848;-75
2022/12/19 09:40:57;;;;;;;46.00;24.70;;;;;;;2.55;94.32;96775.84;5092750;28;20484;-75
2022/12/19 09:43:39;;;;;;;47.27;25.50;;;;;;;2.56;94.49;96774.94;5040353;28;20832;-75
2022/12/19 09:46:16;;;;;;;45.90;24.90;;;;;;;2.75;94.53;96772.78;5092868;28;20454;-75
2022/12/19 09:48:43;;;;;;;41.80;21.63;;;;;;;2.80;94.18;96760.56;5092811;28;20844;-74
2022/12/19 09:51:14;;;;;;;45.27;24.73;;;;;;;2.72;94.59;96768.53;5092594;28;20529;-74
2022/12/19 09:53:55;;;;;;;43.07;21.73;;;;;;;2.85;94.43;96763.03;5092674;28;20538;-75
2022/12/19 09:56:34;;;;;;;45.60;22.70;;;;;;;2.96;93.28;96766.25;5040517;28;20457;-75
2022/12/19 09:59:10;;;;;;;39.23;22.67;;;;;;;2.99;93.58;96746.25;5093006;28;20452;-75
2022/12/19 10:01:46;;;;;;;35.10;20.13;;;;;;;2.89;93.97;96757.78;5093320;28;20507;-76
2022/12/19 10:04:17;;;;;;;34.87;18.73;;;;;;;3.03;93.95;96747.03;5092963;28;20483;-76
2022/12/19 10:06:44;;;;;;;33.73;18.50;;;;;;;3.05;93.98;96743.50;5092809;28;20444;-76
2022/12/19 10:09:13;;;;;;;37.67;18.97;;;;;;;3.11;92.63;96747.69;5040908;28;20505;-76
2022/12/19 10:11:56;;;;;;;27.70;18.63;;;;;;;3.10;92.51;96744.25;5093340;28;20440;-76
2022/12/19 10:14:35;;;;;;;38.73;19.47;;;;;;;3.16;92.76;96742.38;5092996;28;20459;-76
2022/12/19 10:17:13;;;;;;;30.83;17.93;;;;;;;3.06;93.03;96736.59;5093500;28;20492;-76
2022/12/19 10:20:01;;;;;;;35.87;20.20;;;;;;;3.26;92.42;96736.06;5095984;28;20443;-76
2022/12/19 10:22:37;;;;;;;44.57;20.53;;;;;;;3.42;92.65;96729.56;5097409;28;20444;-76
2022/12/19 10:25:21;;;;;;;34.13;19.20;;;;;;;3.51;92.37;96726.72;5096707;28;20504;-76
2022/12/19 10:27:55;;;;;;;34.63;19.23;;;;;;;3.66;91.84;96728.03;5096325;28;20479;-75
2022/12/19 10:30:24;;;;;;;32.13;19.20;;;;;;;3.83;90.94;96722.38;5096396;28;20448;-74
2022/12/19 10:33:01;;;;;;;40.33;21.17;;;;;;;3.72;91.87;96712.28;5096065;28;20759;-74
2022/12/19 10:35:33;;;;;;;27.47;17.50;;;;;;;3.64;92.29;96704.72;5096502;28;20519;-75
2022/12/19 10:38:16;;;;;;;31.17;17.57;;;;;;;3.47;92.27;96698.28;5096106;28;20451;-75
2022/12/19 10:40:48;;;;;;;37.97;20.83;;;;;;;3.69;92.70;96697.66;5096400;28;20909;-75
2022/12/19 10:43:26;;;;;;;43.43;23.03;;;;;;;3.77;92.92;96701.78;5096102;28;20443;-75
2022/12/19 10:46:01;;;;;;;34.87;18.90;;;;;;;3.66;92.07;96697.72;5096303;28;20912;-74
2022/12/19 10:48:28;;;;;;;36.00;20.23;;;;;;;3.67;92.50;96693.41;5096070;28;20427;-75
2022/12/19 10:50:55;;;;;;;32.87;20.47;;;;;;;3.73;93.44;96688.88;5096006;28;20467;-75
2022/12/19 10:53:28;;;;;;;33.37;20.90;;;;;;;3.58;93.22;96678.94;5096186;28;20492;-74
2022/12/19 10:55:59;;;;;;;34.43;19.80;;;;;;;3.49;94.20;96681.81;5095793;28;20467;-75
2022/12/19 10:58:33;;;;;;;33.00;17.33;;;;;;;3.56;94.38;96682.47;5095936;28;20458;-75
2022/12/19 11:01:06;;;;;;;32.20;18.47;;;;;;;3.67;93.47;96683.00;5095889;28;20490;-75
2022/12/19 11:03:34;;;;;;;29.93;18.00;;;;;;;3.54;94.97;96684.28;5095665;28;20526;-75
2022/12/19 11:06:02;;;;;;;40.83;21.87;;;;;;;3.58;95.30;96684.13;5095830;28;20501;-74
2022/12/19 11:08:31;;;;;;;26.80;15.40;;;;;;;3.55;94.09;96681.63;5095566;28;20447;-75
2022/12/19 11:11:11;;;;;;;28.00;15.83;;;;;;;3.55;95.19;96686.81;5095865;28;20440;-75
2022/12/19 11:13:44;;;;;;;31.63;15.13;;;;;;;3.55;95.20;96683.38;5059929;28;20434;-75
2022/12/19 11:16:21;;;;;;;25.43;16.63;;;;;;;3.61;95.75;96673.66;5095879;28;20456;-75
2022/12/19 11:18:48;;;;;;;35.40;17.30;;;;;;;3.68;95.12;96680.38;5095330;28;20450;-74
2022/12/19 11:21:19;;;;;;;33.13;17.90;;;;;;;3.56;94.81;96675.53;5095722;28;20447;-75
2022/12/19 11:23:51;;;;;;;30.47;15.33;;;;;;;3.63;95.78;96669.28;5095524;28;20444;-75
2022/12/19 11:26:34;;;;;;;26.63;15.83;;;;;;;3.60;95.04;96671.97;5095577;28;20539;-75
2022/12/19 11:29:05;;;;;;;31.23;16.13;;;;;;;3.84;95.81;96666.94;5095808;28;20456;-76
2022/12/19 11:31:36;;;;;;;27.63;14.93;;;;;;;3.78;94.21;96674.94;5094653;28;20451;-75
2022/12/19 11:34:05;;;;;;;24.77;14.87;;;;;;;3.68;94.39;96675.19;5095900;28;20452;-75
2022/12/19 11:36:38;;;;;;;26.90;13.97;;;;;;;3.75;93.85;96673.25;5095573;28;20843;-76
2022/12/19 11:39:10;;;;;;;26.37;12.93;;;;;;;3.76;93.83;96674.09;5077557;28;20449;-75
2022/12/19 11:41:45;;;;;;;30.40;15.30;;;;;;;3.65;94.98;96669.22;5074825;28;20445;-76
2022/12/19 11:44:23;;;;;;;24.27;14.30;;;;;;;3.76;95.43;96674.09;5074784;28;20851;-76